Time;durP1;ratioP1;P1;durP2;ratioP2;P2;SDS_P1;SDS_P2;PMS_P1;PMS_P2;Temp;Humidity;BMP_temperature;BMP_pressure;BME280_temperature;BME280_humidity;BME280_pressure;Samples;Min_cycle;Max_cycle;Signal;HPM_P1;HPM_P2
2022/01/24 00:02:01;;;;;;;397.83;377.23;;;5.30;99.90;;;;;;5071560;28;20445;-66
2022/01/24 00:04:27;;;;;;;374.95;355.52;;;5.20;99.90;;;;;;5072857;28;20124;-66
2022/01/24 00:06:53;;;;;;;387.10;367.05;;;5.20;99.90;;;;;;5071475;28;20124;-65
2022/01/24 00:09:19;;;;;;;406.00;384.40;;;5.20;99.90;;;;;;5072048;28;20464;-65
2022/01/24 00:12:02;;;;;;;393.52;373.05;;;5.30;99.90;;;;;;5072408;28;20114;-65
2022/01/24 00:17:18;;;;;;;413.77;392.38;;;5.20;99.90;;;;;;5069015;28;20040;-66
2022/01/24 00:27:58;;;;;;;444.85;421.20;;;5.20;99.90;;;;;;5071580;28;20487;-66
2022/01/24 00:30:25;;;;;;;414.60;392.63;;;5.10;99.90;;;;;;5071369;28;20068;-65
2022/01/24 00:32:50;;;;;;;428.88;405.85;;;5.10;99.90;;;;;;5071212;28;20486;-65
2022/01/24 00:35:17;;;;;;;438.85;415.00;;;5.20;99.90;;;;;;5072815;28;20060;-65
2022/01/24 00:37:43;;;;;;;468.52;442.95;;;5.20;99.90;;;;;;5067332;28;20093;-66
2022/01/24 00:40:09;;;;;;;446.08;422.23;;;5.20;99.90;;;;;;5072835;28;20041;-66
2022/01/24 00:45:16;;;;;;;394.80;374.02;;;5.10;99.90;;;;;;5050707;28;20045;-66
2022/01/24 00:53:15;;;;;;;398.33;377.25;;;5.10;99.90;;;;;;5052226;28;20085;-65
2022/01/24 00:55:42;;;;;;;428.95;405.83;;;5.10;99.90;;;;;;5057705;28;20048;-65
2022/01/24 00:58:07;;;;;;;418.95;396.50;;;5.10;99.90;;;;;;5071749;28;20052;-65
2022/01/24 01:00:33;;;;;;;446.40;422.27;;;5.20;99.90;;;;;;5071947;28;20089;-66
2022/01/24 01:02:59;;;;;;;476.63;451.00;;;5.10;99.90;;;;;;5072332;28;20490;-66
2022/01/24 01:05:48;;;;;;;420.27;398.08;;;5.10;99.90;;;;;;5071086;28;20040;-65
2022/01/24 01:18:08;;;;;;;430.08;405.92;;;5.10;99.90;;;;;;5072120;28;20041;-66
2022/01/24 01:19:14;;;;;;;438.20;415.13;;;5.10;99.90;;;;;;5038990;28;20052;-65
2022/01/24 01:21:39;;;;;;;431.15;407.50;;;5.00;99.90;;;;;;5052121;28;20041;-66
2022/01/24 01:24:05;;;;;;;436.17;412.23;;;5.00;99.90;;;;;;5072321;28;20106;-65
2022/01/24 01:26:37;;;;;;;424.15;400.90;;;5.00;99.90;;;;;;5071626;28;20497;-66
2022/01/24 01:29:09;;;;;;;436.67;412.92;;;5.00;99.90;;;;;;5071801;28;20040;-66
2022/01/24 01:34:52;;;;;;;417.33;393.60;;;5.00;99.90;;;;;;5071905;28;20106;-66
2022/01/24 01:40:06;;;;;;;478.60;452.05;;;4.90;99.90;;;;;;5056903;28;20048;-66
2022/01/24 01:56:04;;;;;;;467.48;440.88;;;4.90;99.90;;;;;;5033997;28;20053;-66
2022/01/24 01:58:30;;;;;;;446.85;422.52;;;4.90;99.90;;;;;;5060562;28;20087;-66
2022/01/24 02:00:58;;;;;;;458.30;432.75;;;4.80;99.90;;;;;;5074692;28;20687;-66
2022/01/24 02:03:25;;;;;;;457.42;432.33;;;4.80;99.90;;;;;;5075036;28;20080;-66
2022/01/24 02:05:51;;;;;;;440.02;415.58;;;4.80;99.90;;;;;;5073834;28;20580;-65
2022/01/24 02:08:18;;;;;;;468.83;442.65;;;4.80;99.90;;;;;;5074520;28;20053;-66
2022/01/24 02:10:44;;;;;;;428.63;404.48;;;4.80;99.90;;;;;;5075230;28;20048;-66
2022/01/24 02:13:11;;;;;;;473.33;446.13;;;4.70;99.90;;;;;;5074530;28;20050;-66
2022/01/24 02:15:50;;;;;;;467.05;439.55;;;4.70;99.90;;;;;;5073712;28;20040;-66
2022/01/24 02:18:30;;;;;;;496.05;467.88;;;4.80;99.90;;;;;;5062247;28;20060;-65
2022/01/24 02:21:13;;;;;;;466.45;439.00;;;4.80;99.90;;;;;;5032708;28;20124;-66
2022/01/24 02:23:46;;;;;;;;;;;4.80;99.90;;;;;;5037845;28;20456;-66
2022/01/24 02:26:19;;;;;;;460.48;432.80;;;4.80;99.90;;;;;;5074557;28;19916;-66
2022/01/24 02:33:49;;;;;;;440.83;415.55;;;4.70;99.90;;;;;;5074181;28;20493;-66
2022/01/24 02:36:21;;;;;;;421.92;398.38;;;4.70;99.90;;;;;;5073647;28;20032;-66
2022/01/24 02:39:09;;;;;;;423.73;400.90;;;4.70;99.90;;;;;;5058368;28;20135;-66
2022/01/24 02:49:48;;;;;;;484.88;456.33;;;4.80;99.90;;;;;;5033495;28;20057;-66
2022/01/24 02:52:15;;;;;;;460.83;433.90;;;4.80;99.90;;;;;;5068344;28;20102;-66
2022/01/24 02:54:41;;;;;;;508.55;478.73;;;4.80;99.90;;;;;;5074014;28;20414;-65
2022/01/24 02:57:09;;;;;;;442.75;417.80;;;4.70;99.90;;;;;;5073388;28;20048;-66
2022/01/24 02:59:36;;;;;;;454.75;427.73;;;4.70;99.90;;;;;;5073268;28;20044;-66
2022/01/24 03:02:03;;;;;;;473.05;445.75;;;4.80;99.90;;;;;;5073961;28;20565;-65
2022/01/24 03:04:28;;;;;;;502.15;473.20;;;4.80;99.90;;;;;;5073132;28;20411;-65
2022/01/24 03:06:54;;;;;;;445.48;420.05;;;4.80;99.90;;;;;;5073487;28;20056;-66
2022/01/24 03:09:22;;;;;;;452.27;426.48;;;4.80;99.90;;;;;;5058389;28;20049;-66
2022/01/24 03:14:18;;;;;;;456.33;429.45;;;4.80;99.90;;;;;;5053585;28;20101;-65
2022/01/24 03:16:45;;;;;;;510.25;480.00;;;4.70;99.90;;;;;;5053598;28;20055;-65
2022/01/24 03:19:11;;;;;;;490.42;462.23;;;4.70;99.90;;;;;;5052933;28;20041;-65
2022/01/24 03:21:37;;;;;;;442.48;417.50;;;4.70;99.90;;;;;;5053463;28;20048;-66
2022/01/24 03:24:03;;;;;;;430.52;405.50;;;4.70;99.90;;;;;;5053475;28;20048;-66
2022/01/24 03:26:29;;;;;;;443.33;417.42;;;4.70;99.90;;;;;;5060874;28;20482;-66
2022/01/24 03:28:55;;;;;;;456.80;430.65;;;4.60;99.90;;;;;;5073435;28;20060;-65
2022/01/24 03:31:20;;;;;;;468.00;440.85;;;4.60;99.90;;;;;;5071669;28;20044;-65
2022/01/24 03:33:46;;;;;;;470.10;442.35;;;4.70;99.90;;;;;;5073239;28;20051;-65
2022/01/24 03:36:12;;;;;;;443.45;418.08;;;4.70;99.90;;;;;;5071256;28;20449;-65
2022/01/24 03:38:38;;;;;;;442.63;417.17;;;4.60;99.90;;;;;;5057893;28;20053;-65
2022/01/24 03:41:03;;;;;;;476.08;448.85;;;4.70;99.90;;;;;;5052148;28;20136;-66
2022/01/24 03:43:29;;;;;;;442.08;415.90;;;4.60;99.90;;;;;;5052845;28;20060;-66
2022/01/24 03:46:14;;;;;;;427.48;403.35;;;4.50;99.90;;;;;;5052504;28;20041;-66
2022/01/24 03:48:45;;;;;;;482.83;455.05;;;4.60;99.90;;;;;;5041399;28;20050;-65
2022/01/24 03:51:12;;;;;;;495.23;466.92;;;4.60;99.90;;;;;;5031671;28;20049;-66
2022/01/24 03:53:38;;;;;;;512.95;483.17;;;4.60;99.90;;;;;;5059154;28;20083;-65
2022/01/24 03:56:05;;;;;;;453.48;426.92;;;4.60;99.90;;;;;;5073106;28;20055;-66
2022/01/24 03:58:31;;;;;;;520.75;490.63;;;4.70;99.90;;;;;;5072874;28;20087;-66
2022/01/24 04:00:58;;;;;;;442.55;417.02;;;4.60;99.90;;;;;;5070281;28;20123;-65
2022/01/24 04:03:24;;;;;;;457.23;430.70;;;4.60;99.90;;;;;;5053060;28;20048;-66
2022/01/24 04:05:49;;;;;;;481.83;453.35;;;4.60;99.90;;;;;;5052288;28;20053;-65
2022/01/24 04:08:15;;;;;;;486.02;457.60;;;4.60;99.90;;;;;;5052198;28;20049;-65
2022/01/24 04:10:44;;;;;;;497.40;468.42;;;4.60;99.90;;;;;;5059698;28;20052;-65
2022/01/24 04:13:25;;;;;;;472.25;444.88;;;4.60;99.90;;;;;;5072664;28;20166;-66
2022/01/24 04:21:21;;;;;;;467.35;439.65;;;4.60;99.90;;;;;;5071436;28;20091;-66
2022/01/24 04:23:56;;;;;;;451.48;425.08;;;4.60;99.90;;;;;;5072917;28;20095;-66
2022/01/24 04:26:22;;;;;;;483.60;454.38;;;4.60;99.90;;;;;;5072415;28;20040;-65
2022/01/24 04:28:48;;;;;;;468.70;440.48;;;4.60;99.90;;;;;;5071300;28;20126;-65
2022/01/24 04:31:14;;;;;;;460.58;433.17;;;4.60;99.90;;;;;;5072851;28;20036;-65
2022/01/24 04:33:40;;;;;;;518.90;488.23;;;4.60;99.90;;;;;;5072580;28;20132;-65
2022/01/24 04:36:06;;;;;;;470.83;442.90;;;4.50;99.90;;;;;;5070593;28;20127;-65
2022/01/24 04:38:32;;;;;;;466.48;438.65;;;4.60;99.90;;;;;;5058140;28;20041;-65
2022/01/24 04:41:02;;;;;;;504.10;474.40;;;4.50;99.90;;;;;;5052725;28;20437;-66
2022/01/24 04:43:51;;;;;;;427.80;402.50;;;4.50;99.90;;;;;;5051839;28;20077;-65
2022/01/24 04:46:41;;;;;;;450.65;424.33;;;4.50;99.90;;;;;;5062299;28;20094;-65
2022/01/24 04:56:42;;;;;;;463.90;436.73;;;4.60;99.90;;;;;;5071573;28;20084;-66
2022/01/24 04:59:09;;;;;;;468.48;441.38;;;4.60;99.90;;;;;;5072512;28;20044;-65
2022/01/24 05:01:35;;;;;;;508.60;477.52;;;4.60;99.90;;;;;;5072514;28;20052;-66
2022/01/24 05:04:03;;;;;;;466.45;438.38;;;4.50;99.90;;;;;;5070597;28;20502;-66
2022/01/24 05:06:29;;;;;;;459.95;433.90;;;4.40;99.90;;;;;;5071945;28;20107;-65
2022/01/24 05:08:54;;;;;;;438.98;413.98;;;4.40;99.90;;;;;;5072530;28;20494;-65
2022/01/24 05:11:32;;;;;;;533.15;502.02;;;4.40;99.90;;;;;;5071688;28;20036;-65
2022/01/24 05:24:39;;;;;;;465.65;439.55;;;4.40;99.90;;;;;;5074911;28;20055;-65
2022/01/24 05:27:05;;;;;;;430.92;406.92;;;4.40;99.90;;;;;;5074153;28;20577;-65
2022/01/24 05:29:31;;;;;;;450.65;425.38;;;4.40;99.90;;;;;;5075383;28;20483;-65
2022/01/24 05:31:56;;;;;;;472.95;446.45;;;4.40;99.90;;;;;;5074991;28;20055;-65
2022/01/24 05:34:23;;;;;;;399.30;377.15;;;4.40;99.90;;;;;;5075684;28;20048;-65
2022/01/24 05:36:49;;;;;;;426.55;402.00;;;4.50;99.90;;;;;;5075727;28;20090;-65
2022/01/24 05:39:15;;;;;;;420.83;397.42;;;4.50;99.90;;;;;;5054679;28;20061;-65
2022/01/24 05:41:41;;;;;;;419.25;395.23;;;4.50;99.90;;;;;;5055357;28;20044;-65
2022/01/24 05:44:07;;;;;;;469.42;441.65;;;4.50;99.90;;;;;;5055391;28;20067;-66
2022/01/24 05:46:33;;;;;;;430.25;406.23;;;4.50;99.90;;;;;;5053371;28;20434;-65
2022/01/24 05:49:00;;;;;;;420.88;396.67;;;4.40;99.90;;;;;;5055177;28;20049;-66
2022/01/24 05:51:26;;;;;;;451.00;425.35;;;4.40;99.90;;;;;;5055457;28;20049;-65
2022/01/24 05:53:51;;;;;;;385.25;363.77;;;4.40;99.90;;;;;;5054518;28;20053;-66
2022/01/24 05:56:17;;;;;;;406.55;383.85;;;4.50;99.90;;;;;;5057815;28;20063;-65
2022/01/24 05:58:43;;;;;;;399.40;377.02;;;4.50;99.90;;;;;;5073877;28;20477;-65
2022/01/24 06:01:09;;;;;;;408.08;384.83;;;4.50;99.90;;;;;;5074668;28;20037;-65
2022/01/24 06:03:35;;;;;;;408.88;385.63;;;4.50;99.90;;;;;;5075101;28;20044;-66
2022/01/24 06:06:01;;;;;;;400.90;377.92;;;4.50;99.90;;;;;;5073755;28;20132;-65
2022/01/24 06:08:26;;;;;;;413.15;389.83;;;4.50;99.90;;;;;;5075119;28;20140;-65
2022/01/24 06:10:53;;;;;;;378.02;356.65;;;4.50;99.90;;;;;;5074932;28;20051;-65
2022/01/24 06:13:19;;;;;;;437.52;413.27;;;4.50;99.90;;;;;;5074028;28;20048;-65
2022/01/24 06:15:45;;;;;;;398.15;376.73;;;4.50;99.90;;;;;;5074650;28;20094;-65
2022/01/24 06:18:11;;;;;;;353.33;333.17;;;4.50;99.90;;;;;;5062560;28;20045;-65
2022/01/24 06:20:37;;;;;;;402.63;379.75;;;4.50;99.90;;;;;;5054061;28;20045;-65
2022/01/24 06:23:03;;;;;;;373.38;352.10;;;4.40;99.90;;;;;;5052663;28;20133;-65
2022/01/24 06:25:29;;;;;;;389.40;367.35;;;4.40;99.90;;;;;;5054125;28;20060;-65
2022/01/24 06:27:55;;;;;;;366.02;345.65;;;4.40;99.90;;;;;;5053861;28;20057;-65
2022/01/24 06:30:21;;;;;;;354.08;334.48;;;4.30;99.90;;;;;;5053628;28;20049;-65
2022/01/24 06:32:47;;;;;;;349.75;330.63;;;4.30;99.90;;;;;;5066595;28;20040;-66
2022/01/24 06:35:14;;;;;;;329.20;311.23;;;4.30;99.90;;;;;;5073727;28;20474;-65
2022/01/24 06:37:41;;;;;;;346.60;327.38;;;4.40;99.90;;;;;;5067943;28;20122;-66
2022/01/24 06:40:10;;;;;;;422.13;399.13;;;4.40;99.90;;;;;;5053923;28;20092;-66
2022/01/24 06:42:36;;;;;;;388.52;366.90;;;4.30;99.90;;;;;;5053803;28;20049;-66
2022/01/24 06:45:02;;;;;;;368.08;348.08;;;4.30;99.90;;;;;;5053175;28;20072;-66
2022/01/24 06:47:28;;;;;;;361.02;341.08;;;4.30;99.90;;;;;;5053029;28;20053;-66
2022/01/24 06:49:53;;;;;;;366.65;346.73;;;4.30;99.90;;;;;;5060949;28;20098;-66
2022/01/24 06:52:20;;;;;;;371.63;351.30;;;4.30;99.90;;;;;;5074125;28;20052;-66
2022/01/24 06:54:46;;;;;;;369.98;349.45;;;4.30;99.90;;;;;;5073858;28;20394;-66
2022/01/24 06:57:13;;;;;;;372.73;351.98;;;4.30;99.90;;;;;;5072349;28;20052;-65
2022/01/24 06:59:40;;;;;;;347.48;328.75;;;4.40;99.90;;;;;;5073761;28;20048;-66
2022/01/24 07:02:07;;;;;;;376.70;356.67;;;4.40;99.90;;;;;;5073859;28;20037;-66
2022/01/24 07:04:33;;;;;;;398.25;376.15;;;4.50;99.90;;;;;;5071802;28;20045;-65
2022/01/24 07:06:59;;;;;;;343.85;325.13;;;4.50;99.90;;;;;;5073350;28;20063;-66
2022/01/24 07:09:24;;;;;;;342.13;323.20;;;4.40;99.90;;;;;;5073044;28;20040;-66
2022/01/24 07:11:52;;;;;;;341.92;323.17;;;4.50;99.90;;;;;;5073874;28;20497;-66
2022/01/24 07:14:19;;;;;;;358.13;338.45;;;4.40;99.90;;;;;;5073869;28;20040;-65
2022/01/24 07:19:22;;;;;;;355.13;335.60;;;4.40;99.90;;;;;;5053873;28;20119;-66
2022/01/24 07:21:48;;;;;;;359.80;339.92;;;4.40;99.90;;;;;;5053840;28;20073;-66
2022/01/24 07:24:13;;;;;;;351.95;332.48;;;4.30;99.90;;;;;;5052557;28;20480;-65
2022/01/24 07:26:39;;;;;;;403.42;382.17;;;4.30;99.90;;;;;;5072536;28;20051;-66
2022/01/24 07:29:05;;;;;;;345.75;326.65;;;4.30;99.90;;;;;;5073457;28;20088;-66
2022/01/24 07:31:31;;;;;;;337.80;319.42;;;4.40;99.90;;;;;;5072304;28;20616;-65
2022/01/24 07:33:57;;;;;;;358.83;339.77;;;4.30;99.90;;;;;;5066623;28;20041;-66
2022/01/24 07:36:24;;;;;;;346.55;327.42;;;4.40;99.90;;;;;;5052126;28;20090;-66
2022/01/24 07:38:50;;;;;;;352.35;332.75;;;4.40;99.90;;;;;;5052127;28;20049;-66
2022/01/24 07:41:22;;;;;;;331.80;313.15;;;4.40;99.90;;;;;;5053446;28;20045;-66
2022/01/24 07:43:48;;;;;;;446.25;421.10;;;4.40;99.90;;;;;;5057351;28;20052;-66
2022/01/24 07:46:14;;;;;;;392.02;369.38;;;4.40;99.90;;;;;;5050922;28;20048;-66
2022/01/24 07:48:39;;;;;;;395.38;372.30;;;4.40;99.90;;;;;;5051665;28;20053;-66
2022/01/24 07:51:05;;;;;;;402.63;379.15;;;4.30;99.90;;;;;;5054343;28;20045;-66
2022/01/24 07:53:31;;;;;;;394.38;372.65;;;4.40;99.90;;;;;;5070794;28;20114;-66
2022/01/24 07:55:57;;;;;;;402.10;379.45;;;4.40;99.90;;;;;;5073192;28;20040;-66
2022/01/24 07:58:23;;;;;;;410.77;387.60;;;4.40;99.90;;;;;;5073081;28;20055;-66
2022/01/24 08:00:49;;;;;;;397.95;376.08;;;4.40;99.90;;;;;;5071785;28;20040;-66
2022/01/24 08:03:15;;;;;;;426.38;401.88;;;4.20;99.90;;;;;;5072828;28;20490;-66
2022/01/24 08:05:41;;;;;;;398.65;375.70;;;4.40;99.90;;;;;;5072049;28;20047;-65
2022/01/24 08:08:07;;;;;;;390.75;368.75;;;4.40;99.90;;;;;;5072991;28;20113;-65
2022/01/24 08:10:33;;;;;;;379.98;358.67;;;4.50;99.90;;;;;;5072323;28;20048;-66
2022/01/24 08:12:59;;;;;;;358.73;339.50;;;4.50;99.90;;;;;;5072212;28;20134;-66
2022/01/24 08:15:25;;;;;;;356.80;337.50;;;4.40;99.90;;;;;;5061751;28;20495;-66
2022/01/24 08:17:51;;;;;;;401.30;378.88;;;4.40;99.90;;;;;;5052013;28;20033;-66
2022/01/24 08:20:17;;;;;;;412.55;389.60;;;4.40;99.90;;;;;;5051768;28;20116;-66
2022/01/24 08:22:44;;;;;;;386.83;365.05;;;4.40;99.90;;;;;;5052927;28;20053;-65
2022/01/24 08:25:11;;;;;;;426.05;402.20;;;4.40;99.90;;;;;;5052321;28;20045;-66
2022/01/24 08:27:38;;;;;;;426.73;401.90;;;4.50;99.90;;;;;;5055472;28;20060;-65
2022/01/24 08:30:06;;;;;;;453.05;427.17;;;4.50;99.90;;;;;;5050842;28;20048;-65
2022/01/24 08:32:32;;;;;;;459.45;433.67;;;4.50;99.90;;;;;;5068450;28;20084;-65
2022/01/24 08:34:58;;;;;;;409.50;386.20;;;4.50;99.90;;;;;;5065618;28;20076;-65
2022/01/24 08:37:24;;;;;;;492.30;464.52;;;4.50;99.90;;;;;;5047795;28;20109;-65
2022/01/24 08:39:50;;;;;;;403.40;381.38;;;4.50;99.90;;;;;;5032412;28;20037;-65
2022/01/24 08:42:24;;;;;;;418.58;394.95;;;4.50;99.90;;;;;;5030417;28;20522;-66
2022/01/24 08:47:24;;;;;;;471.13;442.45;;;4.60;99.90;;;;;;5065755;28;20044;-66
2022/01/24 08:49:50;;;;;;;483.08;453.98;;;4.60;99.90;;;;;;5050283;28;20071;-65
2022/01/24 08:52:16;;;;;;;529.28;496.75;;;4.60;99.90;;;;;;5055397;28;20049;-65
2022/01/24 08:54:42;;;;;;;484.63;455.65;;;4.60;99.90;;;;;;5055326;28;20044;-66
2022/01/24 08:57:08;;;;;;;483.30;454.17;;;4.60;99.90;;;;;;5055543;28;20033;-66
2022/01/24 08:59:38;;;;;;;507.70;477.30;;;4.60;99.90;;;;;;5076276;28;20048;-66
2022/01/24 09:02:04;;;;;;;486.02;456.02;;;4.60;99.90;;;;;;5067198;28;20041;-66
2022/01/24 09:04:30;;;;;;;511.33;479.67;;;4.60;99.90;;;;;;5075497;28;20098;-66
2022/01/24 09:07:00;;;;;;;528.58;496.42;;;4.60;99.90;;;;;;5076182;28;20056;-66
2022/01/24 09:09:25;;;;;;;498.45;468.50;;;4.60;99.90;;;;;;5074975;28;20475;-66
2022/01/24 09:11:52;;;;;;;494.38;464.45;;;4.60;99.90;;;;;;5058265;28;20044;-66
2022/01/24 09:14:18;;;;;;;456.60;429.75;;;4.60;99.90;;;;;;5055576;28;20094;-66
2022/01/24 09:16:43;;;;;;;441.25;415.23;;;4.60;99.90;;;;;;5053490;28;20544;-66
2022/01/24 09:19:09;;;;;;;481.30;452.85;;;4.60;99.90;;;;;;5043097;28;20076;-66
2022/01/24 09:21:35;;;;;;;465.35;438.05;;;4.60;99.90;;;;;;5074182;28;20075;-66
2022/01/24 09:24:02;;;;;;;446.85;421.02;;;4.70;99.90;;;;;;5073251;28;20052;-66
2022/01/24 09:26:28;;;;;;;450.25;424.42;;;4.70;99.90;;;;;;5076028;28;20131;-66
2022/01/24 09:28:54;;;;;;;472.75;444.63;;;4.70;99.90;;;;;;5075169;28;20131;-66
2022/01/24 09:31:22;;;;;;;453.23;426.85;;;4.70;99.90;;;;;;5073478;28;20071;-66
2022/01/24 09:33:49;;;;;;;459.52;432.48;;;4.80;99.90;;;;;;5075678;28;20060;-66
2022/01/24 09:36:15;;;;;;;388.42;366.20;;;4.80;99.90;;;;;;5075767;28;20049;-66
2022/01/24 09:38:41;;;;;;;435.65;409.95;;;4.80;99.90;;;;;;5072726;28;20048;-66
2022/01/24 09:41:09;;;;;;;494.98;464.92;;;4.80;99.90;;;;;;5075750;28;20051;-66
2022/01/24 09:43:36;;;;;;;478.88;449.70;;;4.80;99.90;;;;;;5065847;28;20049;-66
2022/01/24 09:46:03;;;;;;;485.20;455.98;;;4.80;99.90;;;;;;5054635;28;20594;-65
2022/01/24 09:48:29;;;;;;;494.10;464.60;;;4.80;99.90;;;;;;5065321;28;20408;-66
2022/01/24 09:50:55;;;;;;;505.25;475.15;;;4.80;99.90;;;;;;5055722;28;20052;-66
2022/01/24 09:53:23;;;;;;;416.40;392.45;;;4.80;99.90;;;;;;5053813;28;20036;-66
2022/01/24 09:55:49;;;;;;;445.27;419.05;;;4.80;99.90;;;;;;5055694;28;20049;-66
2022/01/24 09:58:16;;;;;;;378.25;356.35;;;4.90;99.90;;;;;;5053146;28;20049;-66
2022/01/24 10:00:43;;;;;;;441.75;415.17;;;4.90;99.90;;;;;;5054712;28;20049;-66
2022/01/24 10:03:12;;;;;;;450.08;423.63;;;4.90;99.90;;;;;;5055322;28;20041;-66
2022/01/24 10:05:40;;;;;;;478.73;449.77;;;4.90;99.90;;;;;;5069076;28;20059;-65
2022/01/24 10:08:13;;;;;;;440.05;414.23;;;4.90;99.90;;;;;;5054822;28;20037;-66
2022/01/24 10:10:48;;;;;;;432.65;407.40;;;4.90;99.90;;;;;;5044505;28;20107;-66
2022/01/24 10:16:30;;;;;;;490.77;460.55;;;4.90;99.90;;;;;;5049811;28;20454;-66
2022/01/24 10:19:02;;;;;;;463.25;435.90;;;4.90;99.90;;;;;;5054080;28;20054;-66
2022/01/24 10:21:28;;;;;;;552.22;517.45;;;5.00;99.90;;;;;;5054841;28;20060;-66
2022/01/24 10:23:56;;;;;;;512.35;480.58;;;5.00;99.90;;;;;;5062563;28;20037;-66
2022/01/24 10:26:24;;;;;;;534.10;500.65;;;5.00;99.90;;;;;;5052573;28;20041;-66
2022/01/24 10:28:50;;;;;;;508.42;476.27;;;5.00;99.90;;;;;;5054489;28;20045;-66
2022/01/24 10:31:21;;;;;;;481.02;451.90;;;5.00;99.90;;;;;;5054145;28;20094;-66
2022/01/24 10:34:16;;;;;;;444.23;417.63;;;5.00;99.90;;;;;;5053239;28;20059;-66
2022/01/24 10:36:46;;;;;;;454.30;427.40;;;5.00;99.90;;;;;;5054489;28;20056;-66
2022/01/24 10:39:18;;;;;;;452.25;425.13;;;5.00;99.90;;;;;;5055518;28;20136;-66
2022/01/24 10:41:56;;;;;;;425.98;400.58;;;5.00;99.90;;;;;;5072010;28;20051;-66
2022/01/24 10:44:27;;;;;;;417.50;392.33;;;5.00;99.90;;;;;;5066936;28;20132;-66
2022/01/24 10:47:09;;;;;;;429.00;403.42;;;5.00;99.90;;;;;;5054455;28;20053;-66
2022/01/24 10:49:34;;;;;;;470.83;442.33;;;5.00;99.90;;;;;;5067285;28;20048;-66
2022/01/24 10:52:09;;;;;;;440.98;415.02;;;5.10;99.90;;;;;;5073942;28;20057;-66
2022/01/24 10:54:35;;;;;;;459.42;431.88;;;5.10;99.90;;;;;;5073270;28;20589;-66
2022/01/24 10:57:01;;;;;;;351.58;331.45;;;5.10;99.90;;;;;;5073817;28;20059;-66
2022/01/24 10:59:27;;;;;;;428.95;403.52;;;5.10;99.90;;;;;;5058509;28;20080;-66
2022/01/24 11:01:55;;;;;;;406.80;383.05;;;5.20;99.90;;;;;;5048519;28;20049;-66
2022/01/24 11:04:24;;;;;;;365.00;343.67;;;5.20;99.90;;;;;;5054229;28;20037;-66
2022/01/24 11:06:54;;;;;;;418.10;393.10;;;5.20;99.90;;;;;;5053575;28;20530;-67
2022/01/24 11:09:23;;;;;;;436.98;410.27;;;5.20;99.90;;;;;;5052572;28;20053;-66
2022/01/24 11:11:51;;;;;;;376.30;354.30;;;5.20;99.90;;;;;;5061548;28;20506;-66
2022/01/24 11:14:20;;;;;;;379.17;356.75;;;5.20;99.90;;;;;;5073488;28;20052;-67
2022/01/24 11:16:48;;;;;;;436.15;410.00;;;5.20;99.90;;;;;;5064986;28;20057;-66
2022/01/24 11:19:19;;;;;;;449.73;422.25;;;5.20;99.90;;;;;;5053123;28;20036;-65
2022/01/24 11:21:46;;;;;;;436.05;410.05;;;5.20;99.90;;;;;;5053537;28;20134;-65
2022/01/24 11:24:18;;;;;;;456.35;428.48;;;5.10;99.90;;;;;;5053524;28;20045;-65
2022/01/24 11:26:46;;;;;;;505.05;473.88;;;5.20;99.90;;;;;;5053086;28;20107;-66
2022/01/24 11:29:12;;;;;;;430.45;404.17;;;5.20;99.90;;;;;;5049024;28;20084;-66
2022/01/24 11:31:49;;;;;;;376.20;353.63;;;5.20;99.90;;;;;;5052723;28;20111;-66
2022/01/24 11:34:30;;;;;;;444.30;416.10;;;5.20;99.90;;;;;;5064919;28;20804;-66
2022/01/24 11:36:57;;;;;;;470.88;440.88;;;5.20;99.90;;;;;;5050919;28;20086;-66
2022/01/24 11:39:24;;;;;;;486.50;455.75;;;5.20;99.90;;;;;;5053096;28;20044;-66
2022/01/24 11:41:51;;;;;;;478.60;447.95;;;5.30;99.90;;;;;;5060339;28;20068;-65
2022/01/24 11:44:19;;;;;;;474.60;444.33;;;5.20;99.90;;;;;;5057795;28;20049;-66
2022/01/24 11:46:56;;;;;;;471.05;440.83;;;5.20;99.90;;;;;;5068317;28;20540;-66
2022/01/24 11:49:25;;;;;;;462.52;433.23;;;5.30;99.90;;;;;;5053198;28;20048;-66
2022/01/24 11:52:11;;;;;;;519.90;486.55;;;5.30;99.90;;;;;;5068364;28;20056;-66
2022/01/24 11:54:45;;;;;;;444.75;415.77;;;5.30;99.90;;;;;;5064896;28;20041;-66
2022/01/24 11:57:23;;;;;;;435.20;407.92;;;5.20;99.90;;;;;;5033249;28;20056;-66
2022/01/24 12:00:11;;;;;;;436.30;408.75;;;5.20;99.90;;;;;;5041639;28;20037;-65
2022/01/24 12:02:39;;;;;;;407.95;382.63;;;5.20;99.90;;;;;;5052696;28;20076;-66
2022/01/24 12:05:12;;;;;;;390.17;366.00;;;5.30;99.90;;;;;;5051833;28;20055;-65
2022/01/24 12:07:48;;;;;;;;;;;5.20;99.90;;;;;;5052520;28;20056;-66
2022/01/24 12:10:21;;;;;;;513.33;480.10;;;5.30;99.90;;;;;;5071566;28;19920;-65
2022/01/24 12:12:50;;;;;;;487.55;456.23;;;5.30;99.90;;;;;;5071883;28;20044;-65
2022/01/24 12:15:36;;;;;;;500.77;468.45;;;5.30;99.90;;;;;;5059729;28;20041;-65
2022/01/24 12:18:03;;;;;;;452.10;423.55;;;5.30;99.90;;;;;;5050427;28;20778;-65
2022/01/24 12:20:30;;;;;;;465.20;434.98;;;5.30;99.90;;;;;;5048414;28;20507;-65
2022/01/24 12:22:56;;;;;;;509.27;476.33;;;5.30;99.90;;;;;;5050768;28;20107;-65
2022/01/24 12:25:49;;;;;;;527.10;492.70;;;5.30;99.90;;;;;;5052637;28;20083;-66
2022/01/24 12:28:19;;;;;;;585.75;547.25;;;5.30;99.90;;;;;;5071207;28;20044;-65
2022/01/24 12:30:58;;;;;;;546.45;510.98;;;5.30;99.90;;;;;;5072515;28;20502;-65
2022/01/24 12:33:38;;;;;;;540.53;504.85;;;5.30;99.90;;;;;;5071530;28;20115;-65
2022/01/24 12:36:08;;;;;;;547.30;510.88;;;5.30;99.90;;;;;;5061159;28;20483;-65
2022/01/24 12:38:48;;;;;;;515.47;481.95;;;5.30;99.90;;;;;;5052038;28;20084;-66
2022/01/24 12:41:17;;;;;;;515.90;482.20;;;5.30;99.90;;;;;;5050016;28;20494;-66
2022/01/24 12:43:55;;;;;;;481.23;451.02;;;5.30;99.90;;;;;;5056161;28;20056;-66
2022/01/24 12:46:25;;;;;;;446.00;419.08;;;5.30;99.90;;;;;;5072586;28;20064;-63
2022/01/24 12:48:53;;;;;;;447.77;421.02;;;5.30;99.90;;;;;;5057720;28;20560;-64
2022/01/24 12:51:22;;;;;;;426.52;400.30;;;5.30;99.90;;;;;;5051826;28;20411;-64
2022/01/24 12:53:49;;;;;;;393.42;369.67;;;5.30;99.90;;;;;;5066850;28;20053;-63
2022/01/24 12:56:18;;;;;;;397.27;374.50;;;5.30;99.90;;;;;;5069858;28;20044;-64
2022/01/24 12:58:46;;;;;;;371.85;350.25;;;5.30;99.90;;;;;;5037791;28;20052;-63
2022/01/24 13:01:22;;;;;;;380.67;359.17;;;5.30;99.90;;;;;;5071282;28;20473;-64
2022/01/24 13:03:57;;;;;;;415.30;391.27;;;5.30;99.90;;;;;;5072417;28;20064;-64
2022/01/24 13:06:26;;;;;;;403.35;379.73;;;5.20;99.90;;;;;;5071777;28;20495;-64
2022/01/24 13:08:54;;;;;;;439.95;413.48;;;5.20;99.90;;;;;;5071924;28;20066;-63
2022/01/24 13:11:20;;;;;;;449.58;422.92;;;5.20;99.90;;;;;;5071816;28;20049;-64
2022/01/24 13:14:03;;;;;;;428.80;403.27;;;5.20;99.90;;;;;;5072104;28;20048;-64
2022/01/24 13:22:25;;;;;;;499.63;468.05;;;5.20;99.90;;;;;;5071303;28;20487;-63
2022/01/24 13:25:16;;;;;;;524.13;490.75;;;5.20;99.90;;;;;;5072124;28;20052;-64
2022/01/24 13:27:49;;;;;;;516.40;484.13;;;5.10;99.90;;;;;;5071141;28;20052;-63
2022/01/24 13:30:25;;;;;;;500.98;470.05;;;5.10;99.90;;;;;;5071665;28;20052;-63
2022/01/24 13:32:54;;;;;;;550.47;515.60;;;5.10;99.90;;;;;;5073065;28;20123;-63
2022/01/24 13:35:27;;;;;;;480.77;451.20;;;5.10;99.90;;;;;;5064237;28;20391;-63
2022/01/24 13:38:01;;;;;;;526.38;492.98;;;5.10;99.90;;;;;;5052777;28;20041;-63
2022/01/24 13:40:38;;;;;;;514.17;481.52;;;5.10;99.90;;;;;;5055378;28;20376;-64
2022/01/24 13:43:05;;;;;;;456.13;426.92;;;5.10;99.90;;;;;;5054616;28;20079;-64
2022/01/24 13:45:34;;;;;;;421.95;396.70;;;5.10;99.90;;;;;;5055396;28;20052;-64
2022/01/24 13:48:02;;;;;;;448.35;421.58;;;5.10;99.90;;;;;;5053268;28;20029;-64
2022/01/24 13:50:28;;;;;;;424.88;399.48;;;5.10;99.90;;;;;;5054197;28;20045;-64
2022/01/24 13:52:54;;;;;;;359.55;338.63;;;5.10;99.90;;;;;;5054788;28;20505;-64
2022/01/24 13:55:22;;;;;;;433.60;407.55;;;5.10;99.90;;;;;;5056812;28;20041;-64
2022/01/24 13:57:52;;;;;;;431.17;405.15;;;5.10;99.90;;;;;;5053842;28;20144;-63
2022/01/24 14:00:27;;;;;;;475.83;445.90;;;5.10;99.90;;;;;;5055261;28;20041;-64
2022/01/24 14:03:08;;;;;;;460.38;431.98;;;5.10;99.90;;;;;;5057270;28;20048;-63
2022/01/24 14:05:34;;;;;;;452.77;425.35;;;5.00;99.90;;;;;;5074034;28;20052;-63
2022/01/24 14:08:15;;;;;;;414.02;390.00;;;5.00;99.90;;;;;;5075006;28;20170;-64